»·PEaware :: N4122T KEMT-KRNM

N4122T :: KEMT-KRNM

FLIGHT INFORMATION

Flight Status: Arrived
Operator: Privately registered:
United States
More flights under this callsign
Pilot: Ulli W. (2180)
Aircraft: CESSNA 172 SKYHAWK
(C172)
More flights by this aircraft type
Origin: KEMT El Monte
United States
Destination: KRNM Ramona
United States
More flights between these airports :: More routes between these airports
Route: +PDZ V186 ROBNN V208 JLI
File this flight plan on PilotEdge
Remarks:
Altitude:
(Current/Filed)
7,000ft
Speed:
(Current/Filed)
0kts
Departed: 09-Nov-20 08:10 AM
Arrived: 09-Nov-20 08:59 AM
Distance/Time
Traveled:
84nm/0:49
Distance/Time
To Go:
Arrived

Flight Plot

Page will automatically refresh every two minutes.


Map Options




Map Legend


Flown Route
Filed Route
Departure Airport
Arrival Airport
Navaid (VOR, NDB)
Fix

Horizontal Profiles

Position Reports

Time Latitude Longitude Heading Altitude Ground
Speed
09-Nov-20 08:03 34.086052 -118.033304 24 299ft 0kts
09-Nov-20 08:04 34.086052 -118.033304 24 299ft 0kts
09-Nov-20 08:05 34.086052 -118.033304 24 299ft 0kts
09-Nov-20 08:06 34.086052 -118.033304 24 299ft 0kts
09-Nov-20 08:07 34.089524 -118.032119 33 299ft 16kts
09-Nov-20 08:08 34.090769 -118.031594 288 299ft 0kts
09-Nov-20 08:09 34.089099 -118.033052 202 299ft 57kts
09-Nov-20 08:10 34.070267 -118.043149 209 1150ft 77kts
09-Nov-20 08:11 34.055121 -118.038541 102 1973ft 81kts
09-Nov-20 08:12 34.055270 -118.014110 85 2908ft 71kts
09-Nov-20 08:13 34.054885 -117.988659 89 3697ft 79kts
09-Nov-20 08:14 34.046966 -117.963300 115 4477ft 84kts
09-Nov-20 08:15 34.035951 -117.938373 112 5212ft 85kts
09-Nov-20 08:16 34.024967 -117.912509 111 5897ft 88kts
09-Nov-20 08:17 34.014843 -117.885531 107 6549ft 89kts
09-Nov-20 08:18 34.004315 -117.855706 107 6991ft 110kts
09-Nov-20 08:19 33.991149 -117.818679 105 6980ft 121kts
09-Nov-20 08:20 33.978207 -117.780667 107 6952ft 121kts
09-Nov-20 08:21 33.969218 -117.741841 101 6968ft 121kts
09-Nov-20 08:22 33.957686 -117.703359 98 7002ft 121kts
09-Nov-20 08:23 33.947351 -117.664387 102 7027ft 122kts
09-Nov-20 08:24 33.936913 -117.625019 102 7060ft 123kts
09-Nov-20 08:25 33.925851 -117.585828 99 7016ft 122kts
09-Nov-20 08:26 33.915581 -117.546566 107 6966ft 123kts
09-Nov-20 08:27 33.893363 -117.514224 134 6948ft 127kts
09-Nov-20 08:28 33.866364 -117.486277 135 6976ft 127kts
09-Nov-20 08:29 33.838469 -117.459479 137 7006ft 127kts
09-Nov-20 08:30 33.811027 -117.432123 129 6973ft 126kts
09-Nov-20 08:31 33.781653 -117.408372 147 6918ft 129kts
09-Nov-20 08:32 33.751949 -117.384474 142 6924ft 128kts
09-Nov-20 08:33 33.723602 -117.358556 140 6944ft 127kts
09-Nov-20 08:34 33.693437 -117.335534 145 6958ft 128kts
09-Nov-20 08:35 33.662100 -117.314665 153 6972ft 128kts
09-Nov-20 08:36 33.630325 -117.294665 146 6988ft 128kts
09-Nov-20 08:37 33.599937 -117.272264 144 6992ft 128kts
09-Nov-20 08:38 33.568759 -117.250887 145 6998ft 129kts
09-Nov-20 08:39 33.538809 -117.227306 143 7012ft 128kts
09-Nov-20 08:40 33.508596 -117.203708 146 7022ft 129kts
09-Nov-20 08:41 33.478658 -117.179692 150 7032ft 130kts
09-Nov-20 08:42 33.444031 -117.166828 165 7023ft 131kts
09-Nov-20 08:43 33.409674 -117.154314 145 7039ft 128kts
09-Nov-20 08:44 33.378718 -117.132359 146 6899ft 130kts
09-Nov-20 08:45 33.347312 -117.111570 149 6922ft 128kts
09-Nov-20 08:46 33.316127 -117.091142 147 6967ft 127kts
09-Nov-20 08:47 33.285007 -117.071429 149 7001ft 127kts
09-Nov-20 08:48 33.254035 -117.051371 147 6940ft 126kts
09-Nov-20 08:49 33.223313 -117.031193 147 6350ft 124kts
09-Nov-20 08:51 33.192749 -117.012073 148 5599ft 122kts
09-Nov-20 08:52 33.163073 -116.992752 149 4873ft 120kts
09-Nov-20 08:53 33.134191 -116.973645 148 4205ft 120kts
09-Nov-20 08:54 33.105459 -116.955300 154 4006ft 117kts
09-Nov-20 08:55 33.075637 -116.939713 142 3567ft 117kts
09-Nov-20 08:56 33.059109 -116.907799 113 2990ft 113kts
09-Nov-20 08:57 33.042110 -116.876845 151 2443ft 107kts
09-Nov-20 08:58 33.035185 -116.893292 289 2104ft 64kts
09-Nov-20 08:59 33.038624 -116.911791 278 1399ft 18kts
09-Nov-20 09:00 33.039807 -116.911274 90 1399ft 12kts
09-Nov-20 09:01 33.040055 -116.910066 293 1399ft 0kts

Navigation Log

Ident Type
Flight plan parsing failed, navigation log unavailable